sensor_id;sensor_type;location;lat;lon;timestamp;pressure;altitude;pressure_sealevel;temperature
19040;BMP180;9652;49.014;12.052;2023-06-01T00:01:01;98045.00;;;18.60
19040;BMP180;9652;49.014;12.052;2023-06-01T00:03:30;98050.00;;;18.50
19040;BMP180;9652;49.014;12.052;2023-06-01T00:05:59;98059.00;;;18.50
19040;BMP180;9652;49.014;12.052;2023-06-01T00:08:26;98044.00;;;18.50
19040;BMP180;9652;49.014;12.052;2023-06-01T00:10:53;98049.00;;;18.40
19040;BMP180;9652;49.014;12.052;2023-06-01T00:13:20;98044.00;;;18.40
19040;BMP180;9652;49.014;12.052;2023-06-01T00:15:47;98041.00;;;18.40
19040;BMP180;9652;49.014;12.052;2023-06-01T00:18:14;98043.00;;;18.30
19040;BMP180;9652;49.014;12.052;2023-06-01T00:20:42;98048.00;;;18.30
19040;BMP180;9652;49.014;12.052;2023-06-01T00:23:11;98048.00;;;18.20
19040;BMP180;9652;49.014;12.052;2023-06-01T00:25:38;98059.00;;;18.20
19040;BMP180;9652;49.014;12.052;2023-06-01T00:28:05;98052.00;;;18.10
19040;BMP180;9652;49.014;12.052;2023-06-01T00:30:32;98047.00;;;18.10
19040;BMP180;9652;49.014;12.052;2023-06-01T00:32:59;98050.00;;;18.10
19040;BMP180;9652;49.014;12.052;2023-06-01T00:35:26;98045.00;;;18.00
19040;BMP180;9652;49.014;12.052;2023-06-01T00:37:53;98031.00;;;18.00
19040;BMP180;9652;49.014;12.052;2023-06-01T00:40:22;98044.00;;;18.00
19040;BMP180;9652;49.014;12.052;2023-06-01T00:42:50;98039.00;;;17.90
19040;BMP180;9652;49.014;12.052;2023-06-01T00:45:17;98030.00;;;17.90
19040;BMP180;9652;49.014;12.052;2023-06-01T00:47:44;98031.00;;;17.90
19040;BMP180;9652;49.014;12.052;2023-06-01T00:50:12;98032.00;;;17.90
19040;BMP180;9652;49.014;12.052;2023-06-01T00:52:40;97970.00;;;17.80
19040;BMP180;9652;49.014;12.052;2023-06-01T00:55:10;98038.00;;;17.70
19040;BMP180;9652;49.014;12.052;2023-06-01T00:57:40;98029.00;;;17.80
19040;BMP180;9652;49.014;12.052;2023-06-01T01:00:10;97981.00;;;17.80
19040;BMP180;9652;49.014;12.052;2023-06-01T01:02:39;98024.00;;;17.70
19040;BMP180;9652;49.014;12.052;2023-06-01T01:05:08;98027.00;;;17.70
19040;BMP180;9652;49.014;12.052;2023-06-01T01:07:51;98028.00;;;17.70
19040;BMP180;9652;49.014;12.052;2023-06-01T01:10:29;98028.00;;;17.60
19040;BMP180;9652;49.014;12.052;2023-06-01T01:13:07;98024.00;;;17.60
19040;BMP180;9652;49.014;12.052;2023-06-01T01:15:46;98025.00;;;17.50
19040;BMP180;9652;49.014;12.052;2023-06-01T01:18:33;98029.00;;;17.50
19040;BMP180;9652;49.014;12.052;2023-06-01T01:21:04;98016.00;;;17.50
19040;BMP180;9652;49.014;12.052;2023-06-01T01:24:21;98018.00;;;17.40
19040;BMP180;9652;49.014;12.052;2023-06-01T01:27:10;98022.00;;;17.40
19040;BMP180;9652;49.014;12.052;2023-06-01T01:29:45;97986.00;;;17.40
19040;BMP180;9652;49.014;12.052;2023-06-01T01:32:13;98025.00;;;17.30
19040;BMP180;9652;49.014;12.052;2023-06-01T01:34:43;98034.00;;;17.30
19040;BMP180;9652;49.014;12.052;2023-06-01T01:37:11;98021.00;;;17.30
19040;BMP180;9652;49.014;12.052;2023-06-01T01:39:38;98022.00;;;17.20
19040;BMP180;9652;49.014;12.052;2023-06-01T01:42:07;98016.00;;;17.20
19040;BMP180;9652;49.014;12.052;2023-06-01T01:44:34;98028.00;;;17.20
19040;BMP180;9652;49.014;12.052;2023-06-01T01:47:11;98012.00;;;17.20
19040;BMP180;9652;49.014;12.052;2023-06-01T01:49:43;97989.00;;;17.10
19040;BMP180;9652;49.014;12.052;2023-06-01T01:52:16;98010.00;;;17.10
19040;BMP180;9652;49.014;12.052;2023-06-01T01:54:46;98006.00;;;17.10
19040;BMP180;9652;49.014;12.052;2023-06-01T01:57:15;98012.00;;;17.00
19040;BMP180;9652;49.014;12.052;2023-06-01T01:59:45;98002.00;;;17.00
19040;BMP180;9652;49.014;12.052;2023-06-01T02:02:14;97999.00;;;17.00
19040;BMP180;9652;49.014;12.052;2023-06-01T02:04:44;98014.00;;;17.00
19040;BMP180;9652;49.014;12.052;2023-06-01T02:07:13;97982.00;;;16.50
19040;BMP180;9652;49.014;12.052;2023-06-01T02:09:41;97992.00;;;16.90
19040;BMP180;9652;49.014;12.052;2023-06-01T02:12:10;98005.00;;;16.90
19040;BMP180;9652;49.014;12.052;2023-06-01T02:14:37;97987.00;;;16.90
19040;BMP180;9652;49.014;12.052;2023-06-01T02:17:05;97988.00;;;16.80
19040;BMP180;9652;49.014;12.052;2023-06-01T02:19:34;97986.00;;;16.80
19040;BMP180;9652;49.014;12.052;2023-06-01T02:22:01;97989.00;;;16.80
19040;BMP180;9652;49.014;12.052;2023-06-01T02:24:28;97979.00;;;16.70
19040;BMP180;9652;49.014;12.052;2023-06-01T02:26:56;97979.00;;;16.70
19040;BMP180;9652;49.014;12.052;2023-06-01T02:29:23;97964.00;;;16.70
19040;BMP180;9652;49.014;12.052;2023-06-01T02:31:51;97985.00;;;16.60
19040;BMP180;9652;49.014;12.052;2023-06-01T02:34:18;97995.00;;;16.60
19040;BMP180;9652;49.014;12.052;2023-06-01T02:36:47;97987.00;;;16.60
19040;BMP180;9652;49.014;12.052;2023-06-01T02:39:15;97981.00;;;16.60
19040;BMP180;9652;49.014;12.052;2023-06-01T02:41:43;97974.00;;;16.50
19040;BMP180;9652;49.014;12.052;2023-06-01T02:44:10;97987.00;;;16.50
19040;BMP180;9652;49.014;12.052;2023-06-01T02:46:37;97982.00;;;16.50
19040;BMP180;9652;49.014;12.052;2023-06-01T02:49:04;97969.00;;;16.50
19040;BMP180;9652;49.014;12.052;2023-06-01T02:51:31;97974.00;;;16.50
19040;BMP180;9652;49.014;12.052;2023-06-01T02:54:20;97980.00;;;16.40
19040;BMP180;9652;49.014;12.052;2023-06-01T02:56:48;97973.00;;;16.40
19040;BMP180;9652;49.014;12.052;2023-06-01T02:59:24;97981.00;;;16.40
19040;BMP180;9652;49.014;12.052;2023-06-01T03:01:59;97982.00;;;16.40
19040;BMP180;9652;49.014;12.052;2023-06-01T03:04:26;97976.00;;;16.30
19040;BMP180;9652;49.014;12.052;2023-06-01T03:06:55;97974.00;;;16.30
19040;BMP180;9652;49.014;12.052;2023-06-01T03:09:36;97980.00;;;16.30
19040;BMP180;9652;49.014;12.052;2023-06-01T03:12:21;97958.00;;;16.30
19040;BMP180;9652;49.014;12.052;2023-06-01T03:14:49;97973.00;;;16.30
19040;BMP180;9652;49.014;12.052;2023-06-01T03:17:17;97966.00;;;16.20
19040;BMP180;9652;49.014;12.052;2023-06-01T03:19:44;97971.00;;;16.20
19040;BMP180;9652;49.014;12.052;2023-06-01T03:22:20;97973.00;;;16.20
19040;BMP180;9652;49.014;12.052;2023-06-01T03:24:49;97974.00;;;16.20
19040;BMP180;9652;49.014;12.052;2023-06-01T03:27:19;97977.00;;;16.20
19040;BMP180;9652;49.014;12.052;2023-06-01T03:29:46;97950.00;;;16.20
19040;BMP180;9652;49.014;12.052;2023-06-01T03:32:14;97978.00;;;16.20
19040;BMP180;9652;49.014;12.052;2023-06-01T03:34:42;97943.00;;;16.20
19040;BMP180;9652;49.014;12.052;2023-06-01T03:37:09;97974.00;;;16.20
19040;BMP180;9652;49.014;12.052;2023-06-01T03:39:36;97981.00;;;16.20
19040;BMP180;9652;49.014;12.052;2023-06-01T03:42:08;97989.00;;;16.20
19040;BMP180;9652;49.014;12.052;2023-06-01T03:44:39;97990.00;;;16.20
19040;BMP180;9652;49.014;12.052;2023-06-01T03:47:06;97992.00;;;16.20
19040;BMP180;9652;49.014;12.052;2023-06-01T03:49:33;97986.00;;;16.20
19040;BMP180;9652;49.014;12.052;2023-06-01T03:52:05;97996.00;;;16.20
19040;BMP180;9652;49.014;12.052;2023-06-01T03:54:33;97988.00;;;16.20
19040;BMP180;9652;49.014;12.052;2023-06-01T03:57:00;97993.00;;;16.20
19040;BMP180;9652;49.014;12.052;2023-06-01T03:59:29;97992.00;;;16.20
19040;BMP180;9652;49.014;12.052;2023-06-01T04:01:56;97990.00;;;16.20
19040;BMP180;9652;49.014;12.052;2023-06-01T04:04:28;97987.00;;;16.20
19040;BMP180;9652;49.014;12.052;2023-06-01T04:06:55;97997.00;;;16.30
19040;BMP180;9652;49.014;12.052;2023-06-01T04:09:27;97992.00;;;16.30
19040;BMP180;9652;49.014;12.052;2023-06-01T04:11:55;97990.00;;;16.30
19040;BMP180;9652;49.014;12.052;2023-06-01T04:14:22;97994.00;;;16.40
19040;BMP180;9652;49.014;12.052;2023-06-01T04:16:51;97989.00;;;16.40
19040;BMP180;9652;49.014;12.052;2023-06-01T04:19:18;97997.00;;;16.40
19040;BMP180;9652;49.014;12.052;2023-06-01T04:21:47;97986.00;;;16.50
19040;BMP180;9652;49.014;12.052;2023-06-01T04:24:17;97976.00;;;16.50
19040;BMP180;9652;49.014;12.052;2023-06-01T04:26:44;97986.00;;;16.50
19040;BMP180;9652;49.014;12.052;2023-06-01T04:29:11;97988.00;;;16.60
19040;BMP180;9652;49.014;12.052;2023-06-01T04:31:38;97966.00;;;16.60
19040;BMP180;9652;49.014;12.052;2023-06-01T04:34:08;97983.00;;;16.70
19040;BMP180;9652;49.014;12.052;2023-06-01T04:36:36;97992.00;;;16.80
19040;BMP180;9652;49.014;12.052;2023-06-01T04:39:05;97931.00;;;16.80
19040;BMP180;9652;49.014;12.052;2023-06-01T04:41:34;97999.00;;;16.90
19040;BMP180;9652;49.014;12.052;2023-06-01T04:44:02;97990.00;;;16.90
19040;BMP180;9652;49.014;12.052;2023-06-01T04:46:32;97999.00;;;17.00
19040;BMP180;9652;49.014;12.052;2023-06-01T04:49:01;98005.00;;;17.10
19040;BMP180;9652;49.014;12.052;2023-06-01T04:51:30;98001.00;;;17.20
19040;BMP180;9652;49.014;12.052;2023-06-01T04:53:59;97998.00;;;17.20
19040;BMP180;9652;49.014;12.052;2023-06-01T04:56:27;98003.00;;;17.30
19040;BMP180;9652;49.014;12.052;2023-06-01T04:58:56;98004.00;;;17.30
19040;BMP180;9652;49.014;12.052;2023-06-01T05:01:26;97995.00;;;17.40
19040;BMP180;9652;49.014;12.052;2023-06-01T05:03:56;98007.00;;;17.40
19040;BMP180;9652;49.014;12.052;2023-06-01T05:06:24;97999.00;;;17.50
19040;BMP180;9652;49.014;12.052;2023-06-01T05:08:54;97998.00;;;17.60
19040;BMP180;9652;49.014;12.052;2023-06-01T05:11:22;98000.00;;;17.60
19040;BMP180;9652;49.014;12.052;2023-06-01T05:13:49;97993.00;;;17.70
19040;BMP180;9652;49.014;12.052;2023-06-01T05:16:18;97995.00;;;17.70
19040;BMP180;9652;49.014;12.052;2023-06-01T05:18:45;97995.00;;;17.80
19040;BMP180;9652;49.014;12.052;2023-06-01T05:21:12;97991.00;;;17.90
19040;BMP180;9652;49.014;12.052;2023-06-01T05:23:39;97990.00;;;18.00
19040;BMP180;9652;49.014;12.052;2023-06-01T05:26:08;97991.00;;;18.00
19040;BMP180;9652;49.014;12.052;2023-06-01T05:28:35;97990.00;;;18.10
19040;BMP180;9652;49.014;12.052;2023-06-01T05:31:04;97994.00;;;18.20
19040;BMP180;9652;49.014;12.052;2023-06-01T05:33:36;97999.00;;;18.30
19040;BMP180;9652;49.014;12.052;2023-06-01T05:36:04;97993.00;;;18.30
19040;BMP180;9652;49.014;12.052;2023-06-01T05:38:32;97995.00;;;18.40
19040;BMP180;9652;49.014;12.052;2023-06-01T05:40:59;97986.00;;;18.50
19040;BMP180;9652;49.014;12.052;2023-06-01T05:43:28;97984.00;;;18.60
19040;BMP180;9652;49.014;12.052;2023-06-01T05:45:55;97993.00;;;18.70
19040;BMP180;9652;49.014;12.052;2023-06-01T05:48:22;97986.00;;;18.70
19040;BMP180;9652;49.014;12.052;2023-06-01T05:50:53;97989.00;;;18.80
19040;BMP180;9652;49.014;12.052;2023-06-01T05:53:20;97983.00;;;18.90
19040;BMP180;9652;49.014;12.052;2023-06-01T05:55:51;97986.00;;;18.90
19040;BMP180;9652;49.014;12.052;2023-06-01T05:58:19;97973.00;;;19.00
19040;BMP180;9652;49.014;12.052;2023-06-01T06:00:47;97982.00;;;19.10
19040;BMP180;9652;49.014;12.052;2023-06-01T06:03:15;97982.00;;;19.20
19040;BMP180;9652;49.014;12.052;2023-06-01T06:05:42;97982.00;;;19.10
19040;BMP180;9652;49.014;12.052;2023-06-01T06:08:09;97981.00;;;19.30
19040;BMP180;9652;49.014;12.052;2023-06-01T06:10:36;97974.00;;;19.40
19040;BMP180;9652;49.014;12.052;2023-06-01T06:13:03;97977.00;;;19.40
19040;BMP180;9652;49.014;12.052;2023-06-01T06:15:30;97982.00;;;19.50
19040;BMP180;9652;49.014;12.052;2023-06-01T06:17:59;97975.00;;;19.50
19040;BMP180;9652;49.014;12.052;2023-06-01T06:20:26;97978.00;;;19.60
19040;BMP180;9652;49.014;12.052;2023-06-01T06:22:53;97979.00;;;19.70
19040;BMP180;9652;49.014;12.052;2023-06-01T06:25:20;97973.00;;;19.70
19040;BMP180;9652;49.014;12.052;2023-06-01T06:27:47;97986.00;;;19.80
19040;BMP180;9652;49.014;12.052;2023-06-01T06:30:14;97988.00;;;19.90
19040;BMP180;9652;49.014;12.052;2023-06-01T06:32:41;97993.00;;;19.90
19040;BMP180;9652;49.014;12.052;2023-06-01T06:35:10;97980.00;;;19.40
19040;BMP180;9652;49.014;12.052;2023-06-01T06:37:39;97981.00;;;20.10
19040;BMP180;9652;49.014;12.052;2023-06-01T06:40:08;97986.00;;;20.10
19040;BMP180;9652;49.014;12.052;2023-06-01T06:42:36;97989.00;;;20.20
19040;BMP180;9652;49.014;12.052;2023-06-01T06:45:04;97988.00;;;20.20
19040;BMP180;9652;49.014;12.052;2023-06-01T06:47:31;97991.00;;;20.30
19040;BMP180;9652;49.014;12.052;2023-06-01T06:49:58;97986.00;;;20.40
19040;BMP180;9652;49.014;12.052;2023-06-01T06:52:27;97996.00;;;20.40
19040;BMP180;9652;49.014;12.052;2023-06-01T06:54:54;97990.00;;;20.50
19040;BMP180;9652;49.014;12.052;2023-06-01T06:57:21;97989.00;;;20.60
19040;BMP180;9652;49.014;12.052;2023-06-01T06:59:48;97980.00;;;20.70
19040;BMP180;9652;49.014;12.052;2023-06-01T07:02:15;97986.00;;;20.70
19040;BMP180;9652;49.014;12.052;2023-06-01T07:04:42;97984.00;;;20.80
19040;BMP180;9652;49.014;12.052;2023-06-01T07:07:09;97987.00;;;20.90
19040;BMP180;9652;49.014;12.052;2023-06-01T07:09:39;97982.00;;;20.90
19040;BMP180;9652;49.014;12.052;2023-06-01T07:12:07;97986.00;;;21.00
19040;BMP180;9652;49.014;12.052;2023-06-01T07:14:34;97986.00;;;21.10
19040;BMP180;9652;49.014;12.052;2023-06-01T07:17:02;97976.00;;;21.10
19040;BMP180;9652;49.014;12.052;2023-06-01T07:19:29;97980.00;;;21.20
19040;BMP180;9652;49.014;12.052;2023-06-01T07:21:58;97981.00;;;21.30
19040;BMP180;9652;49.014;12.052;2023-06-01T07:24:26;97956.00;;;21.40
19040;BMP180;9652;49.014;12.052;2023-06-01T07:26:55;97980.00;;;21.50
19040;BMP180;9652;49.014;12.052;2023-06-01T07:29:23;97981.00;;;21.50
19040;BMP180;9652;49.014;12.052;2023-06-01T07:31:50;97973.00;;;21.60
19040;BMP180;9652;49.014;12.052;2023-06-01T07:34:18;97974.00;;;21.70
19040;BMP180;9652;49.014;12.052;2023-06-01T07:36:46;97978.00;;;21.80
19040;BMP180;9652;49.014;12.052;2023-06-01T07:39:14;97968.00;;;21.80
19040;BMP180;9652;49.014;12.052;2023-06-01T07:41:44;97963.00;;;21.90
19040;BMP180;9652;49.014;12.052;2023-06-01T07:44:12;97970.00;;;21.90
19040;BMP180;9652;49.014;12.052;2023-06-01T07:46:44;97967.00;;;22.00
19040;BMP180;9652;49.014;12.052;2023-06-01T07:49:12;97965.00;;;22.00
19040;BMP180;9652;49.014;12.052;2023-06-01T07:51:40;97963.00;;;21.90
19040;BMP180;9652;49.014;12.052;2023-06-01T07:54:07;97963.00;;;22.00
19040;BMP180;9652;49.014;12.052;2023-06-01T07:56:34;97969.00;;;22.20
19040;BMP180;9652;49.014;12.052;2023-06-01T07:59:01;97970.00;;;22.30
19040;BMP180;9652;49.014;12.052;2023-06-01T08:01:30;97972.00;;;22.40
19040;BMP180;9652;49.014;12.052;2023-06-01T08:03:57;97968.00;;;22.50
19040;BMP180;9652;49.014;12.052;2023-06-01T08:06:27;97968.00;;;22.60
19040;BMP180;9652;49.014;12.052;2023-06-01T08:09:01;97946.00;;;22.60
19040;BMP180;9652;49.014;12.052;2023-06-01T08:11:29;97966.00;;;22.70
19040;BMP180;9652;49.014;12.052;2023-06-01T08:13:57;97973.00;;;22.80
19040;BMP180;9652;49.014;12.052;2023-06-01T08:16:25;97966.00;;;22.90
19040;BMP180;9652;49.014;12.052;2023-06-01T08:18:54;97967.00;;;22.90
19040;BMP180;9652;49.014;12.052;2023-06-01T08:21:22;97960.00;;;23.00
19040;BMP180;9652;49.014;12.052;2023-06-01T08:23:51;97966.00;;;23.10
19040;BMP180;9652;49.014;12.052;2023-06-01T08:26:19;97965.00;;;23.20
19040;BMP180;9652;49.014;12.052;2023-06-01T08:28:46;97952.00;;;23.20
19040;BMP180;9652;49.014;12.052;2023-06-01T08:31:17;97952.00;;;23.30
19040;BMP180;9652;49.014;12.052;2023-06-01T08:33:45;97959.00;;;23.30
19040;BMP180;9652;49.014;12.052;2023-06-01T08:36:13;97948.00;;;23.40
19040;BMP180;9652;49.014;12.052;2023-06-01T08:38:42;97952.00;;;23.50
19040;BMP180;9652;49.014;12.052;2023-06-01T08:41:17;97952.00;;;23.50
19040;BMP180;9652;49.014;12.052;2023-06-01T08:43:59;97956.00;;;23.60
19040;BMP180;9652;49.014;12.052;2023-06-01T08:46:32;97960.00;;;23.70
19040;BMP180;9652;49.014;12.052;2023-06-01T08:49:00;97948.00;;;23.80
19040;BMP180;9652;49.014;12.052;2023-06-01T08:51:33;97947.00;;;23.80
19040;BMP180;9652;49.014;12.052;2023-06-01T08:54:03;97948.00;;;23.90
19040;BMP180;9652;49.014;12.052;2023-06-01T08:56:31;97948.00;;;24.00
19040;BMP180;9652;49.014;12.052;2023-06-01T08:59:00;97948.00;;;24.10
19040;BMP180;9652;49.014;12.052;2023-06-01T09:01:28;97941.00;;;24.20
19040;BMP180;9652;49.014;12.052;2023-06-01T09:03:55;97940.00;;;24.30
19040;BMP180;9652;49.014;12.052;2023-06-01T09:06:22;97942.00;;;24.40
19040;BMP180;9652;49.014;12.052;2023-06-01T09:08:50;97942.00;;;24.50
19040;BMP180;9652;49.014;12.052;2023-06-01T09:11:17;97941.00;;;24.60
19040;BMP180;9652;49.014;12.052;2023-06-01T09:13:44;97940.00;;;24.80
19040;BMP180;9652;49.014;12.052;2023-06-01T09:16:12;97924.00;;;24.80
19040;BMP180;9652;49.014;12.052;2023-06-01T09:18:51;97930.00;;;25.00
19040;BMP180;9652;49.014;12.052;2023-06-01T09:21:19;97938.00;;;25.10
19040;BMP180;9652;49.014;12.052;2023-06-01T09:23:46;97928.00;;;25.20
19040;BMP180;9652;49.014;12.052;2023-06-01T09:26:17;97931.00;;;25.30
19040;BMP180;9652;49.014;12.052;2023-06-01T09:28:53;97936.00;;;25.40
19040;BMP180;9652;49.014;12.052;2023-06-01T09:31:38;97922.00;;;25.50
19040;BMP180;9652;49.014;12.052;2023-06-01T09:34:07;97929.00;;;25.60
19040;BMP180;9652;49.014;12.052;2023-06-01T09:36:36;97927.00;;;25.70
19040;BMP180;9652;49.014;12.052;2023-06-01T09:39:05;97926.00;;;25.80
19040;BMP180;9652;49.014;12.052;2023-06-01T09:41:52;97920.00;;;25.90
19040;BMP180;9652;49.014;12.052;2023-06-01T09:44:26;97896.00;;;26.00
19040;BMP180;9652;49.014;12.052;2023-06-01T09:46:56;97912.00;;;26.10
19040;BMP180;9652;49.014;12.052;2023-06-01T09:49:25;97923.00;;;26.20
19040;BMP180;9652;49.014;12.052;2023-06-01T09:51:54;97929.00;;;26.20
19040;BMP180;9652;49.014;12.052;2023-06-01T09:54:38;97917.00;;;26.40
19040;BMP180;9652;49.014;12.052;2023-06-01T09:57:08;97915.00;;;26.40
19040;BMP180;9652;49.014;12.052;2023-06-01T09:59:41;97901.00;;;26.50
19040;BMP180;9652;49.014;12.052;2023-06-01T10:02:13;97908.00;;;26.50
19040;BMP180;9652;49.014;12.052;2023-06-01T10:04:44;97905.00;;;26.60
19040;BMP180;9652;49.014;12.052;2023-06-01T10:07:13;97912.00;;;26.60
19040;BMP180;9652;49.014;12.052;2023-06-01T10:09:43;97916.00;;;26.70
19040;BMP180;9652;49.014;12.052;2023-06-01T10:12:13;97888.00;;;26.70
19040;BMP180;9652;49.014;12.052;2023-06-01T10:14:40;97898.00;;;26.80
19040;BMP180;9652;49.014;12.052;2023-06-01T10:17:08;97898.00;;;26.80
19040;BMP180;9652;49.014;12.052;2023-06-01T10:19:37;97898.00;;;26.90
19040;BMP180;9652;49.014;12.052;2023-06-01T10:22:05;97901.00;;;27.00
19040;BMP180;9652;49.014;12.052;2023-06-01T10:24:35;97903.00;;;27.10
19040;BMP180;9652;49.014;12.052;2023-06-01T10:27:18;97901.00;;;27.10
19040;BMP180;9652;49.014;12.052;2023-06-01T10:29:47;97895.00;;;27.20
19040;BMP180;9652;49.014;12.052;2023-06-01T10:32:43;97897.00;;;27.20
19040;BMP180;9652;49.014;12.052;2023-06-01T10:36:00;97901.00;;;27.20
19040;BMP180;9652;49.014;12.052;2023-06-01T10:38:27;97890.00;;;27.30
19040;BMP180;9652;49.014;12.052;2023-06-01T10:41:27;97884.00;;;27.40
19040;BMP180;9652;49.014;12.052;2023-06-01T10:43:57;97889.00;;;27.40
19040;BMP180;9652;49.014;12.052;2023-06-01T10:46:41;97881.00;;;27.50
19040;BMP180;9652;49.014;12.052;2023-06-01T10:49:08;97876.00;;;27.60
19040;BMP180;9652;49.014;12.052;2023-06-01T10:51:36;97880.00;;;27.60
19040;BMP180;9652;49.014;12.052;2023-06-01T10:54:30;97878.00;;;27.80
19040;BMP180;9652;49.014;12.052;2023-06-01T10:57:21;97875.00;;;27.90
19040;BMP180;9652;49.014;12.052;2023-06-01T11:00:15;97866.00;;;28.00
19040;BMP180;9652;49.014;12.052;2023-06-01T11:02:52;97857.00;;;28.10
19040;BMP180;9652;49.014;12.052;2023-06-01T11:05:50;97867.00;;;28.20
19040;BMP180;9652;49.014;12.052;2023-06-01T11:08:54;97865.00;;;28.30
19040;BMP180;9652;49.014;12.052;2023-06-01T11:11:22;97857.00;;;28.40
19040;BMP180;9652;49.014;12.052;2023-06-01T11:14:21;97858.00;;;28.50
19040;BMP180;9652;49.014;12.052;2023-06-01T11:16:51;97858.00;;;28.60
19040;BMP180;9652;49.014;12.052;2023-06-01T11:19:20;97858.00;;;28.70
19040;BMP180;9652;49.014;12.052;2023-06-01T11:21:56;97853.00;;;28.70
19040;BMP180;9652;49.014;12.052;2023-06-01T11:24:32;97845.00;;;28.80
19040;BMP180;9652;49.014;12.052;2023-06-01T11:27:05;97832.00;;;28.90
19040;BMP180;9652;49.014;12.052;2023-06-01T11:29:33;97843.00;;;29.10
19040;BMP180;9652;49.014;12.052;2023-06-01T11:32:04;97840.00;;;29.20
19040;BMP180;9652;49.014;12.052;2023-06-01T11:34:34;97843.00;;;29.20
19040;BMP180;9652;49.014;12.052;2023-06-01T11:37:04;97825.00;;;29.30
19040;BMP180;9652;49.014;12.052;2023-06-01T11:39:32;97831.00;;;29.40
19040;BMP180;9652;49.014;12.052;2023-06-01T11:42:06;97833.00;;;29.50
19040;BMP180;9652;49.014;12.052;2023-06-01T11:44:35;97827.00;;;29.60
19040;BMP180;9652;49.014;12.052;2023-06-01T11:47:05;97824.00;;;29.60
19040;BMP180;9652;49.014;12.052;2023-06-01T11:49:40;97819.00;;;29.70
19040;BMP180;9652;49.014;12.052;2023-06-01T11:52:10;97834.00;;;29.80
19040;BMP180;9652;49.014;12.052;2023-06-01T11:54:38;97824.00;;;29.80
19040;BMP180;9652;49.014;12.052;2023-06-01T11:57:06;97813.00;;;29.80
19040;BMP180;9652;49.014;12.052;2023-06-01T11:59:37;97824.00;;;29.90
19040;BMP180;9652;49.014;12.052;2023-06-01T12:02:17;97815.00;;;29.90
19040;BMP180;9652;49.014;12.052;2023-06-01T12:04:55;97810.00;;;30.00
19040;BMP180;9652;49.014;12.052;2023-06-01T12:07:23;97820.00;;;30.10
19040;BMP180;9652;49.014;12.052;2023-06-01T12:09:52;97814.00;;;30.10
19040;BMP180;9652;49.014;12.052;2023-06-01T12:12:22;97798.00;;;30.20
19040;BMP180;9652;49.014;12.052;2023-06-01T12:14:51;97802.00;;;30.20
19040;BMP180;9652;49.014;12.052;2023-06-01T12:17:19;97812.00;;;30.30
19040;BMP180;9652;49.014;12.052;2023-06-01T12:19:47;97788.00;;;30.30
19040;BMP180;9652;49.014;12.052;2023-06-01T12:22:15;97806.00;;;30.30
19040;BMP180;9652;49.014;12.052;2023-06-01T12:24:43;97801.00;;;30.40
19040;BMP180;9652;49.014;12.052;2023-06-01T12:27:15;97793.00;;;30.30
19040;BMP180;9652;49.014;12.052;2023-06-01T12:29:44;97800.00;;;30.30
19040;BMP180;9652;49.014;12.052;2023-06-01T12:32:14;97777.00;;;30.40
19040;BMP180;9652;49.014;12.052;2023-06-01T12:35:04;97805.00;;;30.40
19040;BMP180;9652;49.014;12.052;2023-06-01T12:37:32;97792.00;;;30.50
19040;BMP180;9652;49.014;12.052;2023-06-01T12:39:59;97800.00;;;30.50
19040;BMP180;9652;49.014;12.052;2023-06-01T12:42:36;97795.00;;;30.60
19040;BMP180;9652;49.014;12.052;2023-06-01T12:45:05;97794.00;;;30.70
19040;BMP180;9652;49.014;12.052;2023-06-01T12:47:36;97794.00;;;30.70
19040;BMP180;9652;49.014;12.052;2023-06-01T12:50:08;97791.00;;;30.70
19040;BMP180;9652;49.014;12.052;2023-06-01T12:52:35;97780.00;;;30.80
19040;BMP180;9652;49.014;12.052;2023-06-01T12:55:03;97778.00;;;31.00
19040;BMP180;9652;49.014;12.052;2023-06-01T12:57:31;97775.00;;;31.10
19040;BMP180;9652;49.014;12.052;2023-06-01T12:59:59;97779.00;;;31.30
19040;BMP180;9652;49.014;12.052;2023-06-01T13:02:26;97772.00;;;31.40
19040;BMP180;9652;49.014;12.052;2023-06-01T13:04:53;97780.00;;;31.60
19040;BMP180;9652;49.014;12.052;2023-06-01T13:07:21;97779.00;;;31.70
19040;BMP180;9652;49.014;12.052;2023-06-01T13:09:49;97775.00;;;32.00
19040;BMP180;9652;49.014;12.052;2023-06-01T13:12:17;97757.00;;;32.40
19040;BMP180;9652;49.014;12.052;2023-06-01T13:14:44;97774.00;;;32.80
19040;BMP180;9652;49.014;12.052;2023-06-01T13:17:12;97772.00;;;33.10
19040;BMP180;9652;49.014;12.052;2023-06-01T13:19:39;97768.00;;;33.40
19040;BMP180;9652;49.014;12.052;2023-06-01T13:22:06;97762.00;;;33.50
19040;BMP180;9652;49.014;12.052;2023-06-01T13:24:34;97760.00;;;33.70
19040;BMP180;9652;49.014;12.052;2023-06-01T13:27:01;97771.00;;;33.70
19040;BMP180;9652;49.014;12.052;2023-06-01T13:29:30;97759.00;;;33.80
19040;BMP180;9652;49.014;12.052;2023-06-01T13:31:57;97752.00;;;34.00
19040;BMP180;9652;49.014;12.052;2023-06-01T13:34:24;97751.00;;;34.20
19040;BMP180;9652;49.014;12.052;2023-06-01T13:36:51;97747.00;;;34.40
19040;BMP180;9652;49.014;12.052;2023-06-01T13:39:19;97749.00;;;34.60
19040;BMP180;9652;49.014;12.052;2023-06-01T13:41:47;97746.00;;;34.80
19040;BMP180;9652;49.014;12.052;2023-06-01T13:44:14;97750.00;;;34.90
19040;BMP180;9652;49.014;12.052;2023-06-01T13:46:43;97740.00;;;34.70
19040;BMP180;9652;49.014;12.052;2023-06-01T13:49:10;97739.00;;;35.20
19040;BMP180;9652;49.014;12.052;2023-06-01T13:51:37;97739.00;;;35.30
19040;BMP180;9652;49.014;12.052;2023-06-01T13:54:05;97724.00;;;35.30
19040;BMP180;9652;49.014;12.052;2023-06-01T13:56:32;97732.00;;;35.40
19040;BMP180;9652;49.014;12.052;2023-06-01T13:59:00;97723.00;;;35.40
19040;BMP180;9652;49.014;12.052;2023-06-01T14:01:28;97707.00;;;35.40
19040;BMP180;9652;49.014;12.052;2023-06-01T14:03:55;97718.00;;;35.40
19040;BMP180;9652;49.014;12.052;2023-06-01T14:06:22;97719.00;;;35.40
19040;BMP180;9652;49.014;12.052;2023-06-01T14:08:49;97718.00;;;35.50
19040;BMP180;9652;49.014;12.052;2023-06-01T14:11:16;97708.00;;;35.70
19040;BMP180;9652;49.014;12.052;2023-06-01T14:13:43;97712.00;;;35.90
19040;BMP180;9652;49.014;12.052;2023-06-01T14:16:11;97711.00;;;36.10
19040;BMP180;9652;49.014;12.052;2023-06-01T14:18:39;97708.00;;;36.30
19040;BMP180;9652;49.014;12.052;2023-06-01T14:21:06;97700.00;;;36.40
19040;BMP180;9652;49.014;12.052;2023-06-01T14:23:33;97700.00;;;36.60
19040;BMP180;9652;49.014;12.052;2023-06-01T14:26:00;97703.00;;;36.70